Other Surface Observations
Issued by NWS Great Falls, MT

Home | Current Version | Previous Version | Text Only | Print | Product List | Glossary On
Versions: 1 2 3 4 5 6 7 8 9 10 11 12 13 14 15 16 17 18 19 20 21 22 23 24 25 26 27 28 29 30 31 32 33 34 35 36 37 38 39 40 41 42 43 44 45 46 47 48 49 50
715
SXUS55 KTFX 100318
OSOTFX

AREA AWOS OBSERVATIONS
NATIONAL WEATHER SERVICE GREAT FALLS MT
0818 PM MST Fri Dec 09 2016

METAR K7S0 100255Z AUTO 00000KT 10SM M11/M14 A3004
METAR KRPX 100255Z AUTO 00000KT 10SM M16/M20 A3005
METAR KS01 100315Z AUTO 00000KT 10SM M19/M21 A3007



USA.gov is the U.S. government's official web portal to all federal, state and local government web resources and services.